Time;durP1;ratioP1;P1;durP2;ratioP2;P2;SDS_P1;SDS_P2;PMS_P1;PMS_P2;Temp;Humidity;BMP_temperature;BMP_pressure;BME280_temperature;BME280_humidity;BME280_pressure;Samples;Min_cycle;Max_cycle;Signal;HPM_P1;HPM_P2
2023/04/10 00:01:05;;;;;;;43.83;23.27;;;;;;;4.17;100.00;101487.44;6280339;28;21336;-92
2023/04/10 00:04:07;;;;;;;43.13;22.00;;;;;;;4.18;100.00;101489.13;6283558;28;20862;-92
2023/04/10 00:07:10;;;;;;;43.78;23.17;;;;;;;4.20;100.00;101486.50;6283141;28;20524;-92
2023/04/10 00:10:12;;;;;;;40.00;22.48;;;;;;;4.23;100.00;101492.34;6283120;28;20147;-92
2023/04/10 00:13:15;;;;;;;39.17;20.80;;;;;;;4.22;100.00;101480.41;6284168;28;20043;-93
2023/04/10 00:16:16;;;;;;;39.30;22.92;;;;;;;4.21;100.00;101477.94;6284152;28;20051;-92
2023/04/10 00:19:18;;;;;;;37.88;21.00;;;;;;;4.22;100.00;101475.28;6281253;28;20047;-92
2023/04/10 00:22:20;;;;;;;45.05;23.52;;;;;;;4.22;100.00;101477.03;6271669;28;20055;-92
2023/04/10 00:25:22;;;;;;;38.60;22.23;;;;;;;4.16;100.00;101459.34;6283905;28;20041;-92
2023/04/10 00:28:24;;;;;;;36.28;20.63;;;;;;;4.19;100.00;101466.91;6282045;28;20446;-92
2023/04/10 00:31:26;;;;;;;39.15;22.52;;;;;;;4.17;100.00;101463.56;6280755;28;20450;-93
2023/04/10 00:34:28;;;;;;;41.88;21.38;;;;;;;4.16;100.00;101456.78;6261415;28;20422;-92
2023/04/10 00:37:30;;;;;;;38.05;20.20;;;;;;;4.11;100.00;101456.94;6284161;28;20045;-92
2023/04/10 00:40:32;;;;;;;36.33;20.98;;;;;;;4.08;100.00;101450.19;6281924;28;20049;-92
2023/04/10 00:43:34;;;;;;;39.33;20.42;;;;;;;4.13;100.00;101449.22;6281999;28;20044;-92
2023/04/10 00:46:42;;;;;;;37.72;20.58;;;;;;;4.09;100.00;101449.28;6282234;28;20408;-92
2023/04/10 00:49:44;;;;;;;38.08;20.70;;;;;;;4.06;100.00;101457.09;6275575;28;20047;-92
2023/04/10 00:52:47;;;;;;;38.92;21.67;;;;;;;4.05;100.00;101450.31;6258709;28;20091;-92
2023/04/10 00:55:49;;;;;;;39.70;20.33;;;;;;;4.02;100.00;101450.41;6283432;28;20036;-92
2023/04/10 00:58:51;;;;;;;38.10;21.13;;;;;;;4.01;100.00;101459.00;6281227;28;20029;-93
2023/04/10 01:01:53;;;;;;;37.00;20.40;;;;;;;3.96;100.00;101460.06;6283472;28;20036;-92
2023/04/10 01:04:55;;;;;;;34.03;18.83;;;;;;;3.92;100.00;101461.06;6280234;28;20040;-92
2023/04/10 01:08:54;;;;;;;36.78;20.13;;;;;;;3.89;100.00;101462.84;6279667;28;20121;-92
2023/04/10 01:12:33;;;;;;;39.03;19.55;;;;;;;3.82;100.00;101463.09;6276402;28;20048;-92
2023/04/10 01:15:46;;;;;;;36.42;20.33;;;;;;;3.80;100.00;101463.19;6279683;28;20049;-92
2023/04/10 01:19:28;;;;;;;37.25;20.25;;;;;;;3.81;100.00;101469.13;6262955;28;20489;-92
2023/04/10 01:22:36;;;;;;;35.85;19.80;;;;;;;3.80;100.00;101462.31;6270156;28;20549;-92
2023/04/10 01:25:40;;;;;;;38.35;19.40;;;;;;;3.75;100.00;101464.22;6260657;28;20055;-93
2023/04/10 01:29:00;;;;;;;36.13;19.92;;;;;;;3.73;100.00;101468.59;6246040;28;20174;-92
2023/04/10 01:32:10;;;;;;;37.80;20.85;;;;;;;3.70;100.00;101463.53;6246512;28;20037;-92
2023/04/10 01:35:14;;;;;;;35.83;19.50;;;;;;;3.71;100.00;101468.63;6277471;28;20052;-93
2023/04/10 01:38:19;;;;;;;40.88;20.80;;;;;;;3.70;100.00;101468.66;6279644;28;20091;-92
2023/04/10 01:41:22;;;;;;;37.70;20.42;;;;;;;3.66;100.00;101461.09;6277306;28;20059;-93
2023/04/10 01:44:28;;;;;;;36.22;20.00;;;;;;;3.64;100.00;101460.31;6283936;28;20083;-93
2023/04/10 01:47:31;;;;;;;35.00;19.33;;;;;;;3.63;100.00;101456.09;6285026;28;20608;-92
2023/04/10 01:50:34;;;;;;;34.53;19.92;;;;;;;3.61;100.00;101459.59;6286857;28;20040;-93
2023/04/10 01:53:37;;;;;;;40.35;21.25;;;;;;;3.59;100.00;101456.25;6286973;28;20067;-93
2023/04/10 01:56:40;;;;;;;41.22;22.20;;;;;;;3.57;100.00;101456.28;6261246;28;20080;-92
2023/04/10 01:59:44;;;;;;;44.08;23.45;;;;;;;3.56;100.00;101449.50;6265662;28;20086;-92
2023/04/10 02:02:46;;;;;;;47.05;25.27;;;;;;;3.60;100.00;101448.53;6284758;28;20044;-92
2023/04/10 02:06:04;;;;;;;48.53;25.75;;;;;;;3.61;100.00;101446.78;6286880;28;20076;-92
2023/04/10 02:09:12;;;;;;;46.10;25.00;;;;;;;3.59;100.00;101441.72;6282779;28;20506;-92
2023/04/10 02:13:02;;;;;;;50.40;25.55;;;;;;;3.61;100.00;101442.50;6280589;28;20036;-92
2023/04/10 02:16:07;;;;;;;47.78;26.13;;;;;;;3.61;100.00;101439.13;6257140;28;20057;-91
2023/04/10 02:19:11;;;;;;;47.78;27.58;;;;;;;3.59;100.00;101438.31;6239496;28;20044;-91
2023/04/10 02:22:15;;;;;;;47.20;26.67;;;;;;;3.58;100.00;101434.94;6250421;28;20321;-91
2023/04/10 02:25:16;;;;;;;52.78;26.98;;;;;;;3.57;100.00;101432.41;6256937;28;20585;-91
2023/04/10 02:28:18;;;;;;;48.40;26.85;;;;;;;3.52;100.00;101430.03;6241527;28;20396;-91
2023/04/10 02:31:20;;;;;;;48.20;26.40;;;;;;;3.56;100.00;101431.59;6258173;28;20789;-91
2023/04/10 02:34:22;;;;;;;45.80;26.00;;;;;;;3.57;100.00;101425.56;6240410;28;20052;-91
2023/04/10 02:37:25;;;;;;;48.88;26.98;;;;;;;3.57;100.00;101432.41;6240573;28;20060;-91
2023/04/10 02:40:26;;;;;;;46.17;24.98;;;;;;;3.60;100.00;101424.63;6216374;28;20072;-91
2023/04/10 02:43:45;;;;;;;48.10;25.23;;;;;;;3.60;100.00;101420.38;6227094;28;20478;-91
2023/04/10 02:46:47;;;;;;;48.50;25.35;;;;;;;3.57;100.00;101423.00;6258068;28;20183;-91
2023/04/10 02:49:50;;;;;;;47.17;25.90;;;;;;;3.59;100.00;101413.56;6241221;28;20155;-90
2023/04/10 02:52:53;;;;;;;43.13;24.83;;;;;;;3.59;100.00;101408.44;6278057;28;20612;-91
2023/04/10 02:55:55;;;;;;;42.58;23.00;;;;;;;3.61;100.00;101408.41;6258520;28;20592;-90
2023/04/10 02:58:57;;;;;;;43.88;24.83;;;;;;;3.60;100.00;101401.59;6284678;28;20040;-90
2023/04/10 03:01:59;;;;;;;45.65;24.85;;;;;;;3.58;100.00;101400.84;6286085;28;20120;-90
2023/04/10 03:05:04;;;;;;;45.05;25.90;;;;;;;3.57;100.00;101405.09;6284444;28;20596;-90
2023/04/10 03:08:06;;;;;;;43.45;24.73;;;;;;;3.55;100.00;101409.47;6286132;28;20093;-90
2023/04/10 03:11:08;;;;;;;46.83;24.70;;;;;;;3.52;100.00;101401.88;6286019;28;20048;-90
2023/04/10 03:14:10;;;;;;;37.78;22.58;;;;;;;3.53;100.00;101397.56;6283484;28;20557;-90
2023/04/10 03:17:12;;;;;;;43.35;22.58;;;;;;;3.50;100.00;101395.13;6280194;28;20048;-90
2023/04/10 03:20:14;;;;;;;40.75;23.63;;;;;;;3.52;100.00;101393.34;6283330;28;20541;-91
2023/04/10 03:23:16;;;;;;;42.83;23.77;;;;;;;3.51;100.00;101389.97;6282469;28;20355;-90
2023/04/10 03:26:18;;;;;;;41.53;22.55;;;;;;;3.48;100.00;101379.00;6285846;28;20044;-90
2023/04/10 03:29:20;;;;;;;41.60;22.48;;;;;;;3.50;100.00;101379.78;6264252;28;20158;-90
2023/04/10 03:32:22;;;;;;;40.13;21.88;;;;;;;3.55;100.00;101378.75;6285275;28;20394;-90
2023/04/10 03:35:24;;;;;;;38.22;21.48;;;;;;;3.50;100.00;101372.09;6283337;28;20048;-90
2023/04/10 03:38:26;;;;;;;35.88;20.60;;;;;;;3.43;100.00;101376.63;6283819;28;20052;-90
2023/04/10 03:41:28;;;;;;;37.70;20.55;;;;;;;3.43;100.00;101372.31;6285498;28;20515;-90
2023/04/10 03:44:30;;;;;;;34.58;19.33;;;;;;;3.45;100.00;101365.44;6285838;28;20040;-90
2023/04/10 03:47:32;;;;;;;38.03;20.55;;;;;;;3.49;100.00;101361.03;6271851;28;20084;-90
2023/04/10 03:50:36;;;;;;;34.58;20.27;;;;;;;3.47;100.00;101373.03;6268489;28;20044;-90
2023/04/10 03:53:39;;;;;;;36.63;20.10;;;;;;;3.40;100.00;101369.88;6291021;28;20044;-90
2023/04/10 03:56:46;;;;;;;37.17;19.95;;;;;;;3.39;100.00;101375.03;6279842;28;20044;-90
2023/04/10 03:59:48;;;;;;;35.70;19.83;;;;;;;3.41;100.00;101368.97;6266137;28;20123;-90
2023/04/10 04:02:50;;;;;;;37.33;20.17;;;;;;;3.42;100.00;101354.47;6283414;28;20043;-90
2023/04/10 04:06:13;;;;;;;32.63;18.50;;;;;;;3.40;100.00;101369.88;6284696;28;20079;-91
2023/04/10 04:09:33;;;;;;;30.98;17.55;;;;;;;3.51;100.00;101366.09;6285732;28;20159;-90
2023/04/10 04:12:55;;;;;;;32.13;17.67;;;;;;;3.53;100.00;101354.91;6253734;28;20060;-90
2023/04/10 04:16:23;;;;;;;32.72;17.42;;;;;;;3.54;100.00;101356.56;6256136;28;20153;-90
2023/04/10 04:19:44;;;;;;;35.30;18.40;;;;;;;3.55;100.00;101355.69;6232166;28;20052;-91
2023/04/10 04:23:04;;;;;;;33.92;17.77;;;;;;;3.56;100.00;101349.69;6256519;28;20061;-90
2023/04/10 04:26:26;;;;;;;33.95;17.30;;;;;;;3.56;100.00;101357.34;6181494;28;20632;-90
2023/04/10 04:29:47;;;;;;;33.67;18.52;;;;;;;3.58;100.00;101353.03;6181711;28;20354;-90
2023/04/10 04:32:55;;;;;;;36.78;18.17;;;;;;;3.57;100.00;101350.50;6182472;28;20571;-90
2023/04/10 04:36:09;;;;;;;32.30;17.60;;;;;;;3.61;100.00;101355.47;6177206;28;20061;-90
2023/04/10 04:39:13;;;;;;;28.25;15.88;;;;;;;3.61;100.00;101363.16;6171145;28;20050;-90
2023/04/10 04:42:32;;;;;;;29.52;16.45;;;;;;;3.65;100.00;101361.28;6156397;28;20054;-90
2023/04/10 04:45:49;;;;;;;29.15;16.85;;;;;;;3.63;100.00;101358.81;6159156;28;20137;-90
2023/04/10 04:49:20;;;;;;;30.17;16.17;;;;;;;3.69;100.00;101359.47;6104519;28;20470;-90
2023/04/10 04:52:42;;;;;;;27.67;15.10;;;;;;;3.70;100.00;101358.56;6123401;28;20055;-90
2023/04/10 04:56:03;;;;;;;34.05;17.00;;;;;;;3.73;100.00;101356.75;6126824;28;20059;-90
2023/04/10 04:59:31;;;;;;;30.42;17.60;;;;;;;3.81;100.00;101359.84;6105987;29;20061;-90
2023/04/10 05:02:39;;;;;;;28.00;14.85;;;;;;;3.85;100.00;101363.97;6122633;28;20576;-90
2023/04/10 05:06:01;;;;;;;29.75;16.08;;;;;;;3.96;100.00;101362.72;6149721;28;20184;-90
2023/04/10 05:09:21;;;;;;;31.97;16.67;;;;;;;4.03;100.00;101370.13;6158198;28;20059;-90
2023/04/10 05:12:42;;;;;;;32.45;17.90;;;;;;;4.26;100.00;101358.16;6143570;28;20529;-90
2023/04/10 05:16:02;;;;;;;27.23;15.43;;;;;;;4.39;100.00;101349.06;6155877;28;20054;-91
2023/04/10 05:19:14;;;;;;;29.60;15.98;;;;;;;4.58;100.00;101344.06;6127300;28;20055;-91
2023/04/10 05:22:27;;;;;;;30.08;16.88;;;;;;;4.68;100.00;101354.75;6133375;28;20105;-91
2023/04/10 05:25:58;;;;;;;31.33;16.92;;;;;;;4.69;100.00;101346.16;6120721;28;20063;-91
2023/04/10 05:29:20;;;;;;;29.23;16.83;;;;;;;4.79;100.00;101350.00;6112843;29;20151;-91
2023/04/10 05:32:41;;;;;;;31.17;17.08;;;;;;;4.84;100.00;101347.25;6114537;29;20089;-91
2023/04/10 05:36:02;;;;;;;;;;;;;;;4.86;100.00;101353.16;6129450;28;20532;-91
2023/04/10 05:39:26;;;;;;;28.83;16.13;;;;;;;4.90;100.00;101352.97;6181198;28;20040;-91
2023/04/10 05:42:34;;;;;;;29.83;16.35;;;;;;;4.96;100.00;101354.44;6179236;28;20413;-91
2023/04/10 05:45:54;;;;;;;29.92;17.15;;;;;;;5.04;100.00;101354.94;6185999;28;20086;-91
2023/04/10 05:49:22;;;;;;;31.40;16.90;;;;;;;5.12;100.00;101358.03;6188060;28;20600;-91
2023/04/10 05:52:42;;;;;;;27.60;15.90;;;;;;;5.21;100.00;101367.06;6186064;28;20078;-91
2023/04/10 05:56:00;;;;;;;26.80;15.77;;;;;;;5.31;100.00;101360.63;6168461;28;20895;-91
2023/04/10 05:59:37;;;;;;;28.92;15.57;;;;;;;5.38;100.00;101359.47;6174027;28;20467;-91
2023/04/10 06:03:00;;;;;;;27.90;16.02;;;;;;;5.51;100.00;101359.75;6132834;28;20110;-91
2023/04/10 06:06:05;;;;;;;25.73;16.17;;;;;;;5.60;100.00;101358.53;6149770;28;20041;-91
2023/04/10 06:09:07;;;;;;;29.35;17.15;;;;;;;5.69;100.00;101355.56;6216890;28;20705;-91
2023/04/10 06:12:09;;;;;;;26.40;15.90;;;;;;;5.69;100.00;101354.69;6236605;28;20419;-91
2023/04/10 06:15:13;;;;;;;28.83;16.13;;;;;;;5.68;100.00;101353.88;6187631;28;20328;-91
2023/04/10 06:18:16;;;;;;;28.60;16.38;;;;;;;5.77;100.00;101358.59;6193647;28;20053;-91
2023/04/10 06:21:18;;;;;;;30.80;18.20;;;;;;;5.75;100.00;101344.16;6210909;28;20045;-91
2023/04/10 06:24:21;;;;;;;27.85;16.27;;;;;;;5.75;100.00;101350.13;6232717;28;20045;-91
2023/04/10 06:27:23;;;;;;;29.23;17.50;;;;;;;5.78;100.00;101336.31;6219115;28;20052;-91
2023/04/10 06:30:25;;;;;;;30.58;16.45;;;;;;;5.83;100.00;101334.34;6216216;28;20355;-91
2023/04/10 06:33:27;;;;;;;29.75;17.10;;;;;;;5.85;100.00;101329.16;6191966;28;20041;-91
2023/04/10 06:36:29;;;;;;;29.33;17.17;;;;;;;5.89;100.00;101333.22;6213631;28;20510;-90
2023/04/10 06:39:38;;;;;;;27.42;16.40;;;;;;;5.96;100.00;101330.38;6233123;28;20044;-90
2023/04/10 06:42:40;;;;;;;30.75;16.27;;;;;;;6.02;100.00;101322.34;6269160;28;20440;-90
2023/04/10 06:46:07;;;;;;;25.77;15.32;;;;;;;6.09;100.00;101320.34;6270076;28;20052;-90
2023/04/10 06:49:10;;;;;;;27.92;16.20;;;;;;;6.24;100.00;101327.31;6277756;28;20059;-90
2023/04/10 06:52:12;;;;;;;27.30;16.55;;;;;;;6.36;100.00;101325.91;6268267;28;20422;-91
2023/04/10 06:55:14;;;;;;;27.70;16.00;;;;;;;6.49;100.00;101326.13;6284203;28;20564;-90
2023/04/10 06:58:16;;;;;;;28.70;16.90;;;;;;;6.75;100.00;101316.28;6277025;28;20483;-90
2023/04/10 07:01:18;;;;;;;30.38;16.25;;;;;;;6.87;100.00;101324.19;6286488;28;20040;-90
2023/04/10 07:04:20;;;;;;;26.77;16.15;;;;;;;7.01;100.00;101309.81;6285299;28;20043;-90
2023/04/10 07:07:22;;;;;;;28.38;16.60;;;;;;;7.15;100.00;101307.34;6287900;28;20071;-90
2023/04/10 07:10:24;;;;;;;25.73;15.00;;;;;;;7.33;100.00;101306.41;6288169;28;20040;-90
2023/04/10 07:13:26;;;;;;;23.92;14.65;;;;;;;7.53;100.00;101302.75;6287896;28;20037;-90
2023/04/10 07:16:28;;;;;;;23.52;13.95;;;;;;;7.65;100.00;101297.84;6287078;28;20491;-91
2023/04/10 07:19:31;;;;;;;23.35;13.90;;;;;;;7.75;100.00;101301.56;6287979;28;20043;-91
2023/04/10 07:22:32;;;;;;;26.02;15.15;;;;;;;7.77;100.00;101297.16;6286099;28;20072;-91
2023/04/10 07:25:34;;;;;;;23.85;14.30;;;;;;;7.81;100.00;101290.94;6278592;28;20097;-91
2023/04/10 07:28:37;;;;;;;23.63;13.93;;;;;;;7.98;100.00;101288.25;6282444;28;20152;-90
2023/04/10 07:31:39;;;;;;;20.20;13.13;;;;;;;8.01;100.00;101295.00;6284242;28;20615;-90
2023/04/10 07:34:41;;;;;;;21.15;13.48;;;;;;;8.15;100.00;101286.50;6285789;28;20036;-90
2023/04/10 07:37:43;;;;;;;22.40;13.10;;;;;;;8.35;100.00;101287.94;6286868;28;20045;-90
2023/04/10 07:40:44;;;;;;;20.80;13.18;;;;;;;8.51;100.00;101281.00;6287267;28;20039;-90
2023/04/10 07:43:46;;;;;;;19.92;12.55;;;;;;;8.68;100.00;101286.94;6286472;28;20171;-90
2023/04/10 07:46:51;;;;;;;22.38;12.20;;;;;;;8.77;100.00;101292.38;6278740;28;20044;-90
2023/04/10 07:49:52;;;;;;;21.40;12.45;;;;;;;8.84;100.00;101275.63;6282999;28;20040;-90
2023/04/10 07:52:54;;;;;;;20.70;12.98;;;;;;;8.98;100.00;101279.09;6285679;28;20448;-89
2023/04/10 07:55:56;;;;;;;19.42;12.20;;;;;;;9.04;100.00;101277.00;6286288;28;20040;-89
2023/04/10 07:58:59;;;;;;;20.42;12.13;;;;;;;9.14;100.00;101279.84;6285210;28;20074;-90
2023/04/10 08:02:01;;;;;;;20.02;12.60;;;;;;;9.25;100.00;101276.59;6285428;28;20047;-90
2023/04/10 08:05:04;;;;;;;18.83;12.38;;;;;;;9.42;100.00;101275.56;6284329;28;20489;-90
2023/04/10 08:08:06;;;;;;;18.35;11.90;;;;;;;9.52;100.00;101268.09;6285459;28;20501;-90
2023/04/10 08:11:31;;;;;;;19.23;11.88;;;;;;;9.64;100.00;101264.72;6276362;28;20043;-90
2023/04/10 08:14:33;;;;;;;18.08;12.40;;;;;;;9.83;100.00;101259.19;6284378;28;20741;-90
2023/04/10 08:17:35;;;;;;;19.52;10.80;;;;;;;9.90;100.00;101256.13;6286785;28;20333;-90
2023/04/10 08:20:37;;;;;;;20.40;12.75;;;;;;;9.94;100.00;101249.00;6281759;28;20505;-91
2023/04/10 08:23:39;;;;;;;19.60;11.75;;;;;;;9.93;100.00;101249.91;6285970;28;20059;-92
2023/04/10 08:26:41;;;;;;;28.92;12.07;;;;;;;9.93;100.00;101245.56;6283246;28;20545;-92
2023/04/10 08:29:43;;;;;;;19.13;11.98;;;;;;;10.00;100.00;101240.00;6283472;28;20052;-92
2023/04/10 08:32:44;;;;;;;19.65;12.75;;;;;;;10.21;100.00;101240.34;6285050;28;20044;-91
2023/04/10 08:35:47;;;;;;;19.95;11.93;;;;;;;10.41;100.00;101239.91;6284079;28;20091;-92
2023/04/10 08:38:50;;;;;;;20.80;13.30;;;;;;;10.51;100.00;101242.72;6283956;28;20510;-92
2023/04/10 08:41:51;;;;;;;17.45;11.95;;;;;;;10.56;100.00;101238.88;6280125;28;20040;-92
2023/04/10 08:44:54;;;;;;;18.70;11.57;;;;;;;10.68;100.00;101236.38;6282610;28;20510;-92
2023/04/10 08:47:57;;;;;;;19.00;11.77;;;;;;;10.74;100.00;101226.44;6282262;28;20036;-93
2023/04/10 08:51:02;;;;;;;21.23;12.77;;;;;;;10.75;100.00;101238.44;6284487;28;20122;-92
2023/04/10 08:54:10;;;;;;;18.50;11.60;;;;;;;10.84;100.00;101218.88;6281968;28;20112;-92
2023/04/10 08:57:21;;;;;;;20.35;13.00;;;;;;;11.03;100.00;101225.34;6273837;28;20055;-90
2023/04/10 09:00:23;;;;;;;20.40;12.32;;;;;;;11.12;100.00;101222.13;6273971;28;20040;-91
2023/04/10 09:03:26;;;;;;;21.40;12.60;;;;;;;11.11;100.00;101213.53;6282758;28;20449;-91
2023/04/10 09:06:30;;;;;;;19.98;11.95;;;;;;;11.20;100.00;101215.50;6276468;28;20110;-91
2023/04/10 09:09:33;;;;;;;16.55;11.77;;;;;;;11.35;100.00;101215.31;6282349;28;20051;-91
2023/04/10 09:12:48;;;;;;;17.65;10.95;;;;;;;11.52;100.00;101199.38;6282812;28;20050;-90
2023/04/10 09:15:59;;;;;;;17.23;11.45;;;;;;;11.66;100.00;101193.19;6277274;28;20044;-90
2023/04/10 09:19:01;;;;;;;15.73;10.98;;;;;;;11.80;100.00;101187.84;6283831;28;20040;-90
2023/04/10 09:22:06;;;;;;;16.85;10.75;;;;;;;11.94;100.00;101176.47;6281771;28;20049;-90
2023/04/10 09:25:28;;;;;;;16.92;11.02;;;;;;;12.05;100.00;101171.31;6265219;28;20049;-89
2023/04/10 09:28:31;;;;;;;16.98;11.50;;;;;;;12.15;100.00;101170.59;6281426;28;20163;-90
2023/04/10 09:31:35;;;;;;;16.38;10.93;;;;;;;12.21;100.00;101162.38;6283626;28;20037;-89
2023/04/10 09:34:56;;;;;;;18.58;11.80;;;;;;;12.31;100.00;101147.75;6275332;28;20098;-90
2023/04/10 09:37:57;;;;;;;17.65;11.68;;;;;;;12.38;100.00;101140.31;6270716;28;20064;-90
2023/04/10 09:41:07;;;;;;;18.35;11.82;;;;;;;12.45;100.00;101138.91;6274096;28;20060;-90
2023/04/10 09:44:10;;;;;;;16.17;10.93;;;;;;;12.61;100.00;101133.34;6285290;28;20128;-91
2023/04/10 09:47:12;;;;;;;15.10;10.90;;;;;;;12.69;100.00;101134.41;6274424;28;20059;-90
2023/04/10 09:50:15;;;;;;;14.68;10.02;;;;;;;12.82;100.00;101128.22;6276287;28;20506;-90
2023/04/10 09:53:20;;;;;;;16.52;11.13;;;;;;;12.97;100.00;101121.84;6282291;28;20528;-90
2023/04/10 09:56:27;;;;;;;15.25;9.80;;;;;;;13.26;100.00;101118.66;6277334;28;20083;-89
2023/04/10 09:59:30;;;;;;;15.45;10.18;;;;;;;13.43;100.00;101110.34;6283534;28;20055;-88
2023/04/10 10:02:37;;;;;;;15.52;10.88;;;;;;;13.61;100.00;101099.38;6278309;28;20040;-89
2023/04/10 10:05:45;;;;;;;12.45;8.95;;;;;;;13.68;100.00;101093.53;6275219;28;20049;-89
2023/04/10 10:08:48;;;;;;;14.63;9.27;;;;;;;13.79;100.00;101085.69;6287813;28;20338;-89
2023/04/10 10:11:51;;;;;;;12.32;9.05;;;;;;;13.91;100.00;101083.00;6288294;28;20040;-89
2023/04/10 10:14:59;;;;;;;15.60;8.05;;;;;;;14.00;100.00;101072.63;6280278;28;20051;-89
2023/04/10 10:18:10;;;;;;;14.27;9.27;;;;;;;14.06;100.00;101076.50;6286948;28;20056;-89
2023/04/10 10:21:13;;;;;;;12.07;8.35;;;;;;;14.10;100.00;101069.25;6287759;28;20064;-89
2023/04/10 10:24:18;;;;;;;14.35;8.90;;;;;;;14.12;100.00;101062.16;6285813;28;20526;-89
2023/04/10 10:27:20;;;;;;;12.85;9.20;;;;;;;14.21;100.00;101064.78;6281735;28;20049;-89
2023/04/10 10:30:22;;;;;;;11.80;8.20;;;;;;;14.36;100.00;101057.44;6284188;28;20037;-89
2023/04/10 10:33:34;;;;;;;11.70;7.80;;;;;;;14.51;100.00;101047.47;6286728;28;20041;-89
2023/04/10 10:36:40;;;;;;;11.73;8.13;;;;;;;14.58;100.00;101037.34;6279167;28;20513;-90
2023/04/10 10:39:58;;;;;;;10.48;7.32;;;;;;;14.67;100.00;101028.72;6269120;28;20043;-89
2023/04/10 10:43:09;;;;;;;9.65;6.80;;;;;;;14.82;100.00;101032.56;6283253;28;20119;-90
2023/04/10 10:46:33;;;;;;;13.52;8.60;;;;;;;14.97;100.00;101014.75;6279493;28;20570;-89
2023/04/10 10:50:04;;;;;;;11.57;7.78;;;;;;;15.15;100.00;101014.03;6288009;28;20048;-89
2023/04/10 10:53:06;;;;;;;9.90;6.65;;;;;;;15.20;100.00;101004.84;6238688;28;20053;-89
2023/04/10 10:56:25;;;;;;;11.80;7.05;;;;;;;15.25;100.00;100999.22;6242484;28;20053;-89
2023/04/10 10:59:45;;;;;;;9.05;6.70;;;;;;;15.44;100.00;101004.38;6241362;28;20064;-90
2023/04/10 11:03:06;;;;;;;10.27;7.20;;;;;;;15.64;100.00;100993.91;6254721;28;20543;-89
2023/04/10 11:06:19;;;;;;;9.00;6.78;;;;;;;15.78;100.00;100993.47;6257370;28;20037;-90
2023/04/10 11:09:51;;;;;;;12.80;7.45;;;;;;;15.88;98.31;100977.78;6240732;28;20180;-89
2023/04/10 11:13:17;;;;;;;9.55;6.90;;;;;;;15.96;98.75;100964.00;6213269;28;20173;-89
2023/04/10 11:16:20;;;;;;;9.15;6.80;;;;;;;15.99;95.46;100958.47;6210780;28;20057;-89
2023/04/10 11:19:24;;;;;;;9.25;7.20;;;;;;;15.98;93.69;100949.81;6209799;28;20522;-89
2023/04/10 11:22:27;;;;;;;8.10;6.53;;;;;;;15.93;100.00;100939.81;6207140;28;20050;-90
2023/04/10 11:26:01;;;;;;;8.50;6.05;;;;;;;16.07;99.32;100935.91;6210503;28;20508;-89
2023/04/10 11:29:15;;;;;;;10.15;6.22;;;;;;;16.17;93.01;100941.03;6162069;28;20047;-89
2023/04/10 11:32:17;;;;;;;9.85;6.85;;;;;;;16.30;91.66;100922.41;6155688;28;20046;-89
2023/04/10 11:35:20;;;;;;;9.52;7.25;;;;;;;16.42;93.04;100907.31;6162086;28;20152;-90
2023/04/10 11:38:22;;;;;;;8.48;6.10;;;;;;;16.44;92.09;100908.81;6157173;28;20054;-89
2023/04/10 11:41:35;;;;;;;8.52;6.38;;;;;;;16.54;100.00;100913.94;6157990;28;20053;-90
2023/04/10 11:44:43;;;;;;;8.45;6.22;;;;;;;16.66;100.00;100889.22;6161165;28;20042;-90
2023/04/10 11:47:54;;;;;;;10.80;7.05;;;;;;;16.89;100.00;100886.94;6158946;28;20077;-90
2023/04/10 11:50:56;;;;;;;8.20;6.57;;;;;;;16.97;90.15;100889.66;6202924;28;20081;-89
2023/04/10 11:54:15;;;;;;;10.15;7.18;;;;;;;17.17;91.45;100878.97;6210188;28;20050;-90
2023/04/10 11:57:17;;;;;;;8.68;6.25;;;;;;;17.31;91.73;100873.13;6203318;28;20610;-89
2023/04/10 12:00:23;;;;;;;7.22;5.72;;;;;;;17.43;83.71;100881.53;6208457;28;20085;-89
2023/04/10 12:03:42;;;;;;;6.45;5.13;;;;;;;17.59;84.25;100879.00;6210814;28;20052;-90
2023/04/10 12:06:45;;;;;;;6.73;5.67;;;;;;;17.79;80.05;100876.13;6279636;28;20426;-90
2023/04/10 12:09:55;;;;;;;7.38;5.55;;;;;;;17.77;75.81;100867.59;6286245;28;20129;-90
2023/04/10 12:12:59;;;;;;;7.70;5.40;;;;;;;17.83;76.38;100859.13;6283318;28;20048;-90
2023/04/10 12:16:09;;;;;;;8.20;5.68;;;;;;;18.07;77.67;100843.44;6278285;28;20052;-90
2023/04/10 12:19:11;;;;;;;5.72;5.00;;;;;;;18.25;74.59;100847.72;6282337;28;20044;-90
2023/04/10 12:22:13;;;;;;;8.10;5.00;;;;;;;18.44;72.07;100844.75;6282684;28;20041;-89
2023/04/10 12:25:20;;;;;;;7.35;5.50;;;;;;;18.56;69.76;100839.16;6281937;28;20127;-90
2023/04/10 12:28:22;;;;;;;6.15;5.15;;;;;;;18.69;70.83;100832.44;6281101;28;20109;-90
2023/04/10 12:31:33;;;;;;;6.10;4.80;;;;;;;18.86;68.37;100822.78;6283003;28;20127;-90
2023/04/10 12:34:36;;;;;;;6.80;5.22;;;;;;;19.02;63.40;100821.91;6280941;28;20922;-90
2023/04/10 12:37:53;;;;;;;6.88;5.18;;;;;;;19.14;65.15;100817.91;6281798;28;20509;-90
2023/04/10 12:41:02;;;;;;;5.95;4.70;;;;;;;19.07;64.75;100819.56;6281668;28;20546;-90
2023/04/10 12:44:12;;;;;;;6.15;4.57;;;;;;;19.16;63.73;100812.50;6281931;28;20040;-90
2023/04/10 12:47:14;;;;;;;7.45;5.78;;;;;;;19.15;62.59;100821.34;6281498;28;20214;-90
2023/04/10 12:50:17;;;;;;;7.18;6.00;;;;;;;19.35;66.38;100813.88;6281141;28;20040;-90
2023/04/10 12:53:19;;;;;;;8.60;5.85;;;;;;;19.35;65.16;100808.63;6281151;28;20044;-90
2023/04/10 12:56:21;;;;;;;6.65;5.43;;;;;;;19.49;64.53;100807.91;6281906;28;20044;-90
2023/04/10 12:59:25;;;;;;;8.52;6.53;;;;;;;19.57;62.36;100799.97;6281804;28;20105;-89
2023/04/10 13:02:27;;;;;;;9.10;5.75;;;;;;;19.61;63.34;100795.22;6282301;28;20039;-90
2023/04/10 13:05:29;;;;;;;6.13;5.15;;;;;;;19.57;61.50;100792.09;6286219;28;20135;-90
2023/04/10 13:08:31;;;;;;;7.75;5.65;;;;;;;19.55;61.03;100778.34;6280780;28;20051;-90
2023/04/10 13:11:33;;;;;;;8.27;5.68;;;;;;;19.57;62.04;100778.97;6285956;28;20041;-90
2023/04/10 13:14:35;;;;;;;7.82;5.40;;;;;;;19.64;58.72;100778.28;6273711;28;20045;-90
2023/04/10 13:17:37;;;;;;;6.78;5.30;;;;;;;19.58;60.76;100762.25;6284964;28;20181;-90
2023/04/10 13:20:40;;;;;;;7.03;5.38;;;;;;;19.69;63.83;100754.97;6276133;28;20040;-90
2023/04/10 13:23:42;;;;;;;8.10;5.70;;;;;;;19.76;63.79;100746.22;6282045;28;20549;-90
2023/04/10 13:26:44;;;;;;;5.72;5.15;;;;;;;19.77;64.71;100741.78;6275160;28;20044;-90
2023/04/10 13:29:46;;;;;;;6.75;5.55;;;;;;;19.69;59.77;100734.78;6285650;28;20481;-90
2023/04/10 13:32:47;;;;;;;5.55;4.70;;;;;;;19.59;61.92;100731.53;6279012;28;20052;-90
2023/04/10 13:35:49;;;;;;;5.97;4.95;;;;;;;19.68;58.54;100721.84;6279518;28;20052;-90
2023/04/10 13:38:51;;;;;;;6.60;4.95;;;;;;;19.78;62.56;100717.16;6285446;28;20051;-91
2023/04/10 13:41:54;;;;;;;6.68;5.05;;;;;;;19.68;58.39;100708.69;6282720;28;20445;-90
2023/04/10 13:44:56;;;;;;;5.10;4.40;;;;;;;19.75;60.96;100699.09;6286777;28;20139;-90
2023/04/10 13:47:58;;;;;;;6.60;4.57;;;;;;;19.87;62.15;100678.47;6281332;28;20371;-90
2023/04/10 13:51:00;;;;;;;5.38;4.18;;;;;;;20.04;61.98;100677.31;6287281;28;20573;-90
2023/04/10 13:54:03;;;;;;;5.32;4.70;;;;;;;19.99;57.56;100669.97;6280283;28;20071;-91
2023/04/10 13:57:05;;;;;;;6.60;4.53;;;;;;;19.82;58.76;100665.88;6284141;28;20601;-91
2023/04/10 14:00:09;;;;;;;5.95;4.10;;;;;;;19.67;57.26;100655.34;6287446;28;20056;-91
2023/04/10 14:03:16;;;;;;;5.88;4.55;;;;;;;19.41;59.82;100647.81;6283328;28;20570;-92
2023/04/10 14:06:18;;;;;;;5.63;4.53;;;;;;;19.35;58.97;100645.88;6290346;28;20118;-92
2023/04/10 14:09:20;;;;;;;7.40;4.47;;;;;;;19.33;57.55;100630.31;6288940;28;20045;-91
2023/04/10 14:12:22;;;;;;;5.80;4.95;;;;;;;19.39;60.65;100631.41;6285229;28;20040;-91
2023/04/10 14:15:24;;;;;;;6.38;4.47;;;;;;;19.56;60.50;100627.66;6290089;28;20477;-92